Time;durP1;ratioP1;P1;durP2;ratioP2;P2;SDS_P1;SDS_P2;PMS_P1;PMS_P2;Temp;Humidity;BMP_temperature;BMP_pressure;BME280_temperature;BME280_humidity;BME280_pressure;Samples;Min_cycle;Max_cycle;Signal;HPM_P1;HPM_P2
2023/12/28 00:02:24;;;;;;;;;3.00;1.00;;;;;8.44;72.83;99335.84;5098261;28;8823;-58
2023/12/28 00:04:51;;;;;;;;;0.00;0.00;;;;;8.36;73.88;99346.25;5095878;28;8932;-60
2023/12/28 00:07:20;;;;;;;;;0.00;0.00;;;;;8.30;73.85;99334.28;5095498;28;8887;-58
2023/12/28 00:09:47;;;;;;;;;2.50;2.50;;;;;8.25;74.09;99341.78;5095601;28;8818;-58
2023/12/28 00:12:15;;;;;;;;;1.00;1.00;;;;;8.22;74.49;99355.28;5097160;28;8821;-57
2023/12/28 00:14:43;;;;;;;;;1.00;1.00;;;;;8.20;74.64;99349.25;5095035;28;8834;-58
2023/12/28 00:17:11;;;;;;;;;1.00;1.00;;;;;8.18;74.84;99351.16;5095366;28;8844;-58
2023/12/28 00:19:39;;;;;;;;;1.00;1.00;;;;;8.16;75.39;99345.16;5095294;28;8834;-57
2023/12/28 00:22:07;;;;;;;;;1.00;1.00;;;;;8.13;75.93;99350.69;5102507;28;8814;-59
2023/12/28 00:24:35;;;;;;;;;2.50;1.00;;;;;8.10;75.95;99353.59;5115725;28;8839;-58
2023/12/28 00:27:02;;;;;;;;;3.25;3.00;;;;;8.07;76.23;99358.28;5096396;28;8938;-58
2023/12/28 00:29:31;;;;;;;;;1.50;1.50;;;;;8.04;76.28;99367.31;5075404;28;8832;-60
2023/12/28 00:31:59;;;;;;;;;1.00;0.50;;;;;8.04;76.75;99369.13;5075606;28;8839;-58
2023/12/28 00:34:27;;;;;;;;;0.50;0.00;;;;;8.03;76.78;99373.59;5074736;28;8917;-58
2023/12/28 00:36:55;;;;;;;;;0.00;0.00;;;;;8.03;77.20;99393.94;5074910;28;8824;-59
2023/12/28 00:39:23;;;;;;;;;2.50;1.00;;;;;8.03;77.14;99378.91;5100316;28;8904;-59
2023/12/28 00:41:51;;;;;;;;;1.00;1.00;;;;;8.03;77.16;99362.97;5115391;28;9517;-60
2023/12/28 00:44:19;;;;;;;;;0.50;0.50;;;;;8.03;77.25;99386.84;5096896;28;8844;-57
2023/12/28 00:46:47;;;;;;;;;1.00;1.00;;;;;8.02;77.89;99377.22;5076378;28;8852;-60
2023/12/28 00:49:14;;;;;;;;;0.00;0.00;;;;;8.00;78.13;99381.75;5079654;28;8950;-59
2023/12/28 00:51:44;;;;;;;;;3.00;1.50;;;;;8.00;78.50;99380.94;5079341;28;8856;-59
2023/12/28 00:54:12;;;;;;;;;1.00;1.00;;;;;7.99;78.71;99369.47;5079971;28;9598;-58
2023/12/28 00:56:40;;;;;;;;;1.50;1.50;;;;;8.00;78.74;99379.13;5080179;28;8824;-57
2023/12/28 00:59:08;;;;;;;;;3.00;1.00;;;;;7.99;79.19;99376.59;5079691;28;8824;-58
2023/12/28 01:01:36;;;;;;;;;1.00;1.00;;;;;8.00;79.36;99388.88;5080043;28;8824;-58
2023/12/28 01:04:03;;;;;;;;;1.00;1.00;;;;;8.00;79.49;99378.28;5079641;28;9066;-56
2023/12/28 01:06:31;;;;;;;;;2.00;2.00;;;;;8.01;80.10;99375.53;5079974;28;8843;-57
2023/12/28 01:08:59;;;;;;;;;1.00;1.00;;;;;8.04;79.85;99382.38;5078761;28;8820;-57
2023/12/28 01:11:27;;;;;;;;;1.50;1.50;;;;;8.08;80.02;99389.13;5078695;28;8844;-59
2023/12/28 01:13:55;;;;;;;;;0.50;0.50;;;;;8.16;80.25;99394.69;5079326;28;9002;-57
2023/12/28 01:16:23;;;;;;;;;1.50;0.75;;;;;8.23;80.34;99396.78;5096281;28;8940;-57
2023/12/28 01:18:51;;;;;;;;;1.00;1.00;;;;;8.30;79.90;99403.25;5098711;28;8891;-58
2023/12/28 01:21:19;;;;;;;;;0.25;0.25;;;;;8.36;79.72;99405.44;5098214;28;8810;-57
2023/12/28 01:23:47;;;;;;;;;1.00;1.00;;;;;8.42;79.86;99402.28;5096952;28;8818;-59
2023/12/28 01:26:15;;;;;;;;;1.00;1.00;;;;;8.47;79.54;99400.13;5098574;28;8960;-58
2023/12/28 01:28:43;;;;;;;;;3.67;3.00;;;;;8.51;79.75;99398.91;5098311;28;8837;-57
2023/12/28 01:31:10;;;;;;;;;1.00;1.00;;;;;8.55;80.08;99418.94;5097864;28;8962;-57
2023/12/28 01:33:39;;;;;;;;;1.00;0.50;;;;;8.60;79.93;99407.94;5099508;28;9523;-58
2023/12/28 01:36:07;;;;;;;;;1.00;1.00;;;;;8.64;80.03;99410.22;5098460;28;8842;-57
2023/12/28 01:38:34;;;;;;;;;1.00;1.00;;;;;8.68;80.02;99414.31;5098575;28;8822;-58
2023/12/28 01:41:03;;;;;;;;;1.00;1.00;;;;;8.72;79.61;99415.75;5098863;28;8954;-57
2023/12/28 01:43:30;;;;;;;;;1.50;1.50;;;;;8.76;79.71;99417.22;5100994;28;8838;-58
2023/12/28 01:45:58;;;;;;;;;3.00;2.00;;;;;8.79;80.18;99409.00;5103738;28;8826;-58
2023/12/28 01:48:26;;;;;;;;;1.50;1.50;;;;;8.79;80.03;99406.34;5118994;28;8824;-58
2023/12/28 01:50:54;;;;;;;;;3.00;2.00;;;;;8.77;79.81;99408.28;5109203;28;8814;-57
2023/12/28 01:53:22;;;;;;;;;0.25;0.25;;;;;8.81;80.17;99416.84;5080646;28;8950;-57
2023/12/28 01:55:50;;;;;;;;;2.00;1.00;;;;;8.86;80.04;99412.00;5078826;28;8812;-57
2023/12/28 01:58:19;;;;;;;;;2.75;2.75;;;;;8.90;80.25;99416.09;5077841;28;8897;-59
2023/12/28 02:00:46;;;;;;;;;0.00;0.00;;;;;8.95;79.77;99427.19;5077508;28;8959;-58
2023/12/28 02:03:14;;;;;;;;;1.00;1.00;;;;;9.00;79.60;99409.06;5100979;28;8800;-58
2023/12/28 02:05:42;;;;;;;;;3.00;2.50;;;;;9.04;80.13;99416.66;5118010;28;8940;-57
2023/12/28 02:08:10;;;;;;;;;1.50;1.50;;;;;9.08;79.62;99428.72;5116890;28;8816;-58
2023/12/28 02:10:38;;;;;;;;;0.00;0.00;;;;;9.12;79.52;99424.81;5097315;28;8927;-57
2023/12/28 02:13:05;;;;;;;;;1.00;1.00;;;;;9.15;79.55;99413.97;5097357;28;8938;-58
2023/12/28 02:15:33;;;;;;;;;3.00;3.00;;;;;9.18;79.76;99419.03;5097845;28;8937;-58
2023/12/28 02:18:01;;;;;;;;;3.50;3.00;;;;;9.21;79.89;99421.44;5096223;28;8915;-57
2023/12/28 02:20:29;;;;;;;;;1.00;1.00;;;;;9.23;79.58;99411.53;5096346;28;8838;-58
2023/12/28 02:22:57;;;;;;;;;2.50;2.50;;;;;9.25;79.54;99425.50;5096619;28;8817;-59
2023/12/28 02:25:25;;;;;;;;;0.00;0.00;;;;;9.27;79.60;99434.19;5096975;28;8940;-57
2023/12/28 02:27:53;;;;;;;;;3.00;3.00;;;;;9.28;79.88;99435.06;5097263;28;9595;-58
2023/12/28 02:30:21;;;;;;;;;1.00;1.00;;;;;9.31;80.14;99440.09;5097090;28;9487;-57
2023/12/28 02:32:49;;;;;;;;;1.00;1.00;;;;;9.35;79.98;99434.41;5097041;28;8837;-58
2023/12/28 02:35:17;;;;;;;;;1.00;0.75;;;;;9.38;80.12;99435.97;5097199;28;8980;-59
2023/12/28 02:37:45;;;;;;;;;1.50;1.50;;;;;9.39;79.67;99438.50;5097165;28;9496;-59
2023/12/28 02:40:14;;;;;;;;;1.00;1.00;;;;;9.41;79.78;99446.34;5095643;28;8806;-58
2023/12/28 02:42:42;;;;;;;;;0.50;0.50;;;;;9.43;80.16;99444.41;5095729;28;8830;-58
2023/12/28 02:45:10;;;;;;;;;1.00;1.00;;;;;9.43;80.04;99445.25;5096936;28;8829;-60
2023/12/28 02:47:38;;;;;;;;;0.25;0.25;;;;;9.45;80.17;99448.63;5096638;28;8814;-59
2023/12/28 02:50:06;;;;;;;;;1.00;1.00;;;;;9.44;79.84;99438.13;5095601;28;8903;-57
2023/12/28 02:52:33;;;;;;;;;0.00;0.00;;;;;9.44;79.81;99438.13;5104374;28;8854;-57
2023/12/28 02:55:01;;;;;;;;;1.00;1.00;;;;;9.45;80.22;99438.00;5117467;28;9017;-57
2023/12/28 02:57:29;;;;;;;;;1.00;1.00;;;;;9.47;80.10;99432.53;5105866;28;8814;-57
2023/12/28 03:00:01;;;;;;;;;2.50;1.50;;;;;9.48;79.83;99440.41;5090833;28;8824;-59
2023/12/28 03:02:29;;;;;;;;;3.00;3.00;;;;;9.51;80.08;99439.31;5077112;28;8952;-58
2023/12/28 03:04:57;;;;;;;;;1.00;1.00;;;;;9.52;80.46;99449.81;5076991;28;8820;-59
2023/12/28 03:07:26;;;;;;;;;2.00;2.00;;;;;9.57;80.34;99433.47;5077303;28;8921;-59
2023/12/28 03:09:53;;;;;;;;;0.00;0.00;;;;;9.58;80.01;99441.31;5103905;28;8797;-57
2023/12/28 03:12:22;;;;;;;;;1.00;1.00;;;;;9.59;79.79;99432.38;5117719;28;8859;-58
2023/12/28 03:14:49;;;;;;;;;0.00;0.00;;;;;9.62;79.88;99439.22;5117092;28;8855;-58
2023/12/28 03:17:17;;;;;;;;;1.00;1.00;;;;;9.61;80.29;99427.78;5097499;28;8817;-57
2023/12/28 03:19:44;;;;;;;;;1.00;1.00;;;;;9.62;80.25;99431.25;5075759;28;8903;-58
2023/12/28 03:22:12;;;;;;;;;1.00;1.00;;;;;9.61;80.06;99425.13;5076280;28;8824;-60
2023/12/28 03:24:40;;;;;;;;;2.00;1.00;;;;;9.61;80.25;99406.50;5076119;28;8882;-58
2023/12/28 03:27:08;;;;;;;;;1.00;1.00;;;;;9.61;80.27;99405.66;5075869;28;8820;-58
2023/12/28 03:29:36;;;;;;;;;1.00;0.25;;;;;9.59;80.56;99403.16;5076815;28;8854;-59
2023/12/28 03:32:03;;;;;;;;;0.25;0.25;;;;;9.58;80.40;99406.75;5076875;28;8828;-58
2023/12/28 03:34:31;;;;;;;;;3.00;3.00;;;;;9.57;80.23;99410.38;5077244;28;8958;-58
2023/12/28 03:36:59;;;;;;;;;1.50;1.00;;;;;9.57;80.50;99410.38;5076947;28;8820;-58
2023/12/28 03:39:27;;;;;;;;;1.00;1.00;;;;;9.57;80.62;99409.56;5076254;28;8832;-58
2023/12/28 03:41:54;;;;;;;;;0.50;0.00;;;;;9.57;80.78;99401.59;5076291;28;8832;-58
2023/12/28 03:44:22;;;;;;;;;1.00;1.00;;;;;9.56;80.75;99398.06;5075540;28;8836;-58
2023/12/28 03:46:50;;;;;;;;;1.25;1.25;;;;;9.57;80.57;99413.03;5093144;28;8837;-58
2023/12/28 03:49:18;;;;;;;;;0.00;0.00;;;;;9.62;80.50;99410.84;5095656;28;8825;-56
2023/12/28 03:51:46;;;;;;;;;1.00;1.00;;;;;9.67;80.52;99421.09;5094900;28;9475;-58
2023/12/28 03:54:13;;;;;;;;;2.00;2.00;;;;;9.70;79.97;99421.69;5095505;28;8921;-59
2023/12/28 03:56:43;;;;;;;;;0.75;0.75;;;;;9.71;80.58;99412.72;5095221;28;8822;-58
2023/12/28 03:59:10;;;;;;;;;1.00;0.50;;;;;9.74;80.63;99420.47;5096100;28;8933;-59
2023/12/28 04:01:38;;;;;;;;;1.00;1.00;;;;;9.75;80.62;99429.25;5094825;28;8826;-58
2023/12/28 04:04:06;;;;;;;;;0.50;0.50;;;;;9.74;80.67;99415.16;5099305;28;9479;-59
2023/12/28 04:06:34;;;;;;;;;1.00;0.50;;;;;9.72;80.48;99409.09;5096071;28;8813;-58
2023/12/28 04:09:02;;;;;;;;;0.00;0.00;;;;;9.72;80.74;99418.91;5098472;28;8932;-60
2023/12/28 04:11:30;;;;;;;;;0.00;0.00;;;;;9.71;80.87;99407.41;5115046;28;8897;-60
2023/12/28 04:13:57;;;;;;;;;1.00;0.50;;;;;9.71;80.72;99417.22;5109790;28;8872;-59
2023/12/28 04:16:25;;;;;;;;;0.50;0.50;;;;;9.70;80.86;99420.81;5094847;28;8887;-57
2023/12/28 04:18:53;;;;;;;;;0.00;0.00;;;;;9.69;80.71;99412.03;5096253;28;9467;-59
2023/12/28 04:21:21;;;;;;;;;2.50;1.00;;;;;9.69;80.63;99417.34;5095497;28;8830;-59
2023/12/28 04:23:49;;;;;;;;;1.50;1.50;;;;;9.68;80.59;99415.66;5096120;28;8822;-58
2023/12/28 04:26:17;;;;;;;;;0.00;0.00;;;;;9.67;80.89;99418.44;5092881;28;8823;-58
2023/12/28 04:28:44;;;;;;;;;1.00;1.00;;;;;9.64;80.93;99418.72;5116813;28;8940;-57
2023/12/28 04:31:12;;;;;;;;;0.25;0.25;;;;;9.62;81.04;99402.88;5115358;28;9557;-59
2023/12/28 04:33:41;;;;;;;;;1.00;1.00;;;;;9.60;81.14;99394.19;5116271;28;8828;-58
2023/12/28 04:36:09;;;;;;;;;1.00;1.00;;;;;9.57;80.57;99389.13;5116501;28;8828;-58
2023/12/28 04:38:38;;;;;;;;;2.00;2.00;;;;;9.56;81.14;99391.94;5116613;28;8835;-57
2023/12/28 04:41:06;;;;;;;;;0.75;0.75;;;;;9.55;81.14;99399.03;5116407;28;9545;-58
2023/12/28 04:43:34;;;;;;;;;0.00;0.00;;;;;9.54;81.30;99405.34;5095143;28;8943;-58
2023/12/28 04:46:01;;;;;;;;;1.00;1.00;;;;;9.53;81.50;99395.69;5095456;28;8818;-59
2023/12/28 04:48:29;;;;;;;;;0.25;0.25;;;;;9.54;80.81;99399.16;5095988;28;9674;-59
2023/12/28 04:50:57;;;;;;;;;0.00;0.00;;;;;9.52;81.17;99406.44;5095740;28;8838;-60
2023/12/28 04:53:25;;;;;;;;;0.75;0.75;;;;;9.53;80.78;99401.00;5095929;28;8868;-57
2023/12/28 04:55:53;;;;;;;;;1.00;1.00;;;;;9.52;81.41;99401.97;5095941;28;8826;-58
2023/12/28 04:58:21;;;;;;;;;0.00;0.00;;;;;9.53;80.62;99400.16;5095197;28;8957;-57
2023/12/28 05:00:49;;;;;;;;;1.00;1.00;;;;;9.54;81.17;99384.06;5096091;28;8840;-59
2023/12/28 05:03:16;;;;;;;;;0.50;0.50;;;;;9.55;81.01;99385.75;5094124;28;8964;-58
2023/12/28 05:05:44;;;;;;;;;0.00;0.00;;;;;9.54;80.59;99386.72;5095905;28;8830;-58
2023/12/28 05:08:12;;;;;;;;;0.00;0.00;;;;;9.54;80.85;99409.81;5095337;28;8982;-57
2023/12/28 05:10:40;;;;;;;;;1.00;0.00;;;;;9.55;81.08;99412.34;5097962;28;8851;-58
2023/12/28 05:13:08;;;;;;;;;2.00;1.50;;;;;9.57;81.03;99402.41;5095265;28;8858;-58
2023/12/28 05:15:36;;;;;;;;;1.50;1.00;;;;;9.61;81.08;99426.91;5095217;28;8862;-58
2023/12/28 05:18:03;;;;;;;;;0.00;0.00;;;;;9.64;80.90;99421.38;5095113;28;8814;-57
2023/12/28 05:20:32;;;;;;;;;1.00;1.00;;;;;9.66;80.53;99420.25;5098815;28;9506;-58
2023/12/28 05:23:00;;;;;;;;;0.25;0.25;;;;;9.69;80.90;99412.03;5113825;28;8797;-58
2023/12/28 05:25:27;;;;;;;;;1.00;0.50;;;;;9.71;80.34;99418.03;5110572;28;8820;-60
2023/12/28 05:27:55;;;;;;;;;0.00;0.00;;;;;9.71;80.48;99420.69;5095548;28;8869;-58
2023/12/28 05:30:23;;;;;;;;;1.00;1.00;;;;;9.74;80.43;99425.78;5095225;28;8871;-58
2023/12/28 05:32:51;;;;;;;;;2.00;2.00;;;;;9.76;80.20;99434.47;5089978;28;8890;-58
2023/12/28 05:35:19;;;;;;;;;0.50;0.50;;;;;9.79;80.57;99436.84;5079234;28;8943;-58
2023/12/28 05:37:47;;;;;;;;;0.50;0.50;;;;;9.79;80.11;99431.53;5091775;28;8812;-57
2023/12/28 05:40:15;;;;;;;;;1.00;1.00;;;;;9.81;80.15;99448.19;5119045;28;8819;-59
2023/12/28 05:42:42;;;;;;;;;0.50;0.50;;;;;9.85;79.94;99443.47;5118703;28;8951;-57
2023/12/28 05:45:10;;;;;;;;;2.00;2.00;;;;;9.86;79.62;99455.81;5118259;28;8808;-60
2023/12/28 05:47:38;;;;;;;;;3.75;1.00;;;;;9.88;80.47;99440.56;5118403;28;8828;-57
2023/12/28 05:50:06;;;;;;;;;0.25;0.25;;;;;9.89;80.04;99442.25;5102648;28;8929;-58
2023/12/28 05:52:34;;;;;;;;;1.00;1.00;;;;;9.88;79.75;99461.84;5077889;28;8967;-58
2023/12/28 05:55:02;;;;;;;;;1.00;1.00;;;;;9.90;79.82;99459.88;5077253;28;8909;-59
2023/12/28 05:57:31;;;;;;;;;1.00;1.00;;;;;9.91;80.02;99438.47;5078186;28;8824;-58
2023/12/28 05:59:59;;;;;;;;;0.50;0.50;;;;;9.92;79.74;99437.50;5077581;28;8855;-58
2023/12/28 06:02:28;;;;;;;;;0.00;0.00;;;;;9.90;79.50;99450.09;5077286;28;8848;-58
2023/12/28 06:04:55;;;;;;;;;0.50;0.50;;;;;9.90;79.83;99462.53;5077877;28;8834;-57
2023/12/28 06:07:23;;;;;;;;;1.00;0.50;;;;;9.90;79.65;99450.09;5077941;28;8909;-58
2023/12/28 06:09:51;;;;;;;;;3.00;3.00;;;;;9.92;79.40;99452.59;5078113;28;8821;-58
2023/12/28 06:12:19;;;;;;;;;3.00;3.00;;;;;9.93;79.31;99454.31;5078179;28;8824;-57
2023/12/28 06:14:46;;;;;;;;;0.25;0.25;;;;;9.91;79.46;99462.41;5088821;28;8842;-60
2023/12/28 06:17:15;;;;;;;;;0.00;0.00;;;;;9.91;78.88;99478.38;5098753;28;8814;-58
2023/12/28 06:19:43;;;;;;;;;0.00;0.00;;;;;9.90;79.64;99476.69;5096794;28;8826;-58
2023/12/28 06:22:11;;;;;;;;;0.75;0.00;;;;;9.89;79.08;99488.31;5082798;28;8814;-58
2023/12/28 06:24:40;;;;;;;;;0.00;0.00;;;;;9.88;79.80;99489.25;5097572;28;8944;-58
2023/12/28 06:27:08;;;;;;;;;3.00;3.00;;;;;9.87;79.28;99487.56;5096494;28;8883;-58
2023/12/28 06:29:35;;;;;;;;;1.00;1.00;;;;;9.86;79.08;99485.88;5095345;28;8829;-59
2023/12/28 06:32:03;;;;;;;;;1.00;1.00;;;;;9.83;79.64;99488.81;5097538;28;8834;-57
2023/12/28 06:34:30;;;;;;;;;1.00;1.00;;;;;9.79;79.79;99479.38;5097777;28;8818;-59
2023/12/28 06:37:01;;;;;;;;;1.00;1.00;;;;;9.75;79.81;99480.63;5097710;28;8891;-58
2023/12/28 06:39:29;;;;;;;;;1.00;1.00;;;;;9.74;79.47;99491.38;5100167;28;8891;-60
2023/12/28 06:41:56;;;;;;;;;1.00;1.00;;;;;9.72;79.66;99488.84;5097170;28;9440;-58
2023/12/28 06:44:24;;;;;;;;;1.00;1.00;;;;;9.69;79.65;99480.28;5096182;28;8854;-59
2023/12/28 06:46:52;;;;;;;;;3.00;1.00;;;;;9.69;79.49;99480.28;5105867;28;8824;-58
2023/12/28 06:49:20;;;;;;;;;2.00;1.00;;;;;9.66;79.21;99477.91;5118087;28;8824;-58
2023/12/28 06:51:47;;;;;;;;;0.75;0.75;;;;;9.62;79.23;99477.31;5105903;28;8826;-58
2023/12/28 06:54:16;;;;;;;;;1.00;1.00;;;;;9.58;79.71;99475.84;5097817;28;8822;-59
2023/12/28 06:56:43;;;;;;;;;1.00;1.00;;;;;9.57;79.52;99482.16;5097625;28;8842;-58
2023/12/28 06:59:12;;;;;;;;;2.00;2.00;;;;;9.54;79.90;99484.22;5080544;28;8866;-57
2023/12/28 07:01:39;;;;;;;;;0.25;0.25;;;;;9.52;79.52;99483.50;5077320;28;8885;-58
2023/12/28 07:04:07;;;;;;;;;1.00;0.50;;;;;9.52;79.81;99481.72;5103656;28;8867;-58
2023/12/28 07:06:35;;;;;;;;;1.50;1.00;;;;;9.48;79.65;99471.47;5117914;28;8827;-57
2023/12/28 07:09:04;;;;;;;;;1.00;1.00;;;;;9.45;79.65;99461.91;5118211;28;8838;-57
2023/12/28 07:11:32;;;;;;;;;0.00;0.00;;;;;9.42;79.93;99486.06;5117860;28;8927;-59
2023/12/28 07:13:59;;;;;;;;;1.00;0.25;;;;;9.37;79.89;99471.47;5117952;28;8848;-58
2023/12/28 07:16:28;;;;;;;;;2.00;2.00;;;;;9.32;80.08;99474.53;5078737;28;8982;-58
2023/12/28 07:18:55;;;;;;;;;1.00;1.00;;;;;9.29;80.07;99477.44;5077040;28;8824;-58
2023/12/28 07:21:24;;;;;;;;;1.00;1.00;;;;;9.29;79.86;99484.56;5077052;28;9607;-59
2023/12/28 07:23:51;;;;;;;;;1.50;1.50;;;;;9.25;80.05;99478.66;5075905;28;8840;-58
2023/12/28 07:26:19;;;;;;;;;1.00;1.00;;;;;9.22;79.97;99486.88;5076427;28;8866;-57
2023/12/28 07:28:48;;;;;;;;;0.00;0.00;;;;;9.19;80.27;99489.75;5075730;28;8832;-59
2023/12/28 07:31:16;;;;;;;;;1.00;1.00;;;;;9.19;79.98;99505.69;5076346;28;8824;-55
2023/12/28 07:33:44;;;;;;;;;3.00;2.50;;;;;9.19;79.83;99500.38;5076126;28;8859;-56
2023/12/28 07:36:11;;;;;;;;;3.00;2.00;;;;;9.22;79.87;99504.63;5076331;28;9533;-57
2023/12/28 07:38:39;;;;;;;;;0.50;0.25;;;;;9.24;79.60;99515.94;5076579;28;8840;-55
2023/12/28 07:41:07;;;;;;;;;1.00;1.00;;;;;9.29;79.45;99505.81;5093322;28;8814;-55
2023/12/28 07:43:36;;;;;;;;;0.25;0.25;;;;;9.30;79.40;99503.03;5096321;28;8838;-56
2023/12/28 07:46:03;;;;;;;;;0.75;0.75;;;;;9.30;79.81;99503.03;5096374;28;8940;-57
2023/12/28 07:48:31;;;;;;;;;1.00;1.00;;;;;9.29;79.96;99506.66;5096207;28;8915;-55
2023/12/28 07:50:59;;;;;;;;;2.00;2.00;;;;;9.27;79.78;99508.59;5095545;28;8806;-55
2023/12/28 07:53:27;;;;;;;;;3.25;2.50;;;;;9.26;79.45;99509.56;5095829;28;8822;-57
2023/12/28 07:55:55;;;;;;;;;2.50;2.50;;;;;9.27;79.72;99508.59;5094418;28;8837;-55
2023/12/28 07:58:23;;;;;;;;;0.00;0.00;;;;;9.27;79.45;99516.56;5097705;28;8818;-57
2023/12/28 08:00:51;;;;;;;;;1.00;1.00;;;;;9.29;79.38;99511.97;5093715;28;8826;-57
2023/12/28 08:03:19;;;;;;;;;1.00;1.00;;;;;9.35;79.32;99515.94;5091260;28;9516;-57
2023/12/28 08:05:47;;;;;;;;;3.00;3.00;;;;;9.34;79.26;99507.13;5094758;28;8828;-55
2023/12/28 08:08:15;;;;;;;;;2.00;1.00;;;;;9.33;79.40;99521.38;5074972;28;8832;-55
2023/12/28 08:10:43;;;;;;;;;3.00;1.00;;;;;9.35;78.87;99532.72;5113946;28;8812;-55
2023/12/28 08:13:10;;;;;;;;;0.25;0.25;;;;;9.34;79.57;99535.50;5116312;28;8962;-55
2023/12/28 08:15:38;;;;;;;;;1.50;1.00;;;;;9.35;79.58;99542.50;5116125;28;8831;-58
2023/12/28 08:18:06;;;;;;;;;1.00;1.00;;;;;9.39;79.24;99534.16;5116139;28;8838;-57
2023/12/28 08:20:34;;;;;;;;;3.00;2.50;;;;;9.45;78.86;99554.94;5116152;28;8855;-59
2023/12/28 08:23:02;;;;;;;;;0.00;0.00;;;;;9.52;78.79;99542.84;5088071;28;8847;-59
2023/12/28 08:25:43;;;;;;;;;0.00;0.00;;;;;9.60;78.97;99559.00;5075631;28;8840;-60
2023/12/28 08:28:11;;;;;;;;;0.00;0.00;;;;;9.64;78.71;99549.78;5075984;28;9501;-58
2023/12/28 08:30:39;;;;;;;;;0.75;0.75;;;;;9.70;78.83;99554.59;5075190;28;8824;-59
2023/12/28 08:33:07;;;;;;;;;2.00;2.00;;;;;9.74;78.51;99560.53;5076042;28;8835;-58
2023/12/28 08:35:35;;;;;;;;;0.75;0.75;;;;;9.75;78.13;99548.91;5075715;28;8848;-59
2023/12/28 08:38:03;;;;;;;;;0.50;0.50;;;;;9.76;78.40;99554.09;5075281;28;8947;-58
2023/12/28 08:40:31;;;;;;;;;1.00;1.00;;;;;9.77;78.14;99549.63;5076306;28;8824;-59
2023/12/28 08:42:59;;;;;;;;;1.00;1.00;;;;;9.79;78.40;99574.28;5074448;28;8925;-57
2023/12/28 08:45:27;;;;;;;;;1.00;1.00;;;;;9.82;78.00;99560.72;5074987;28;8812;-57
2023/12/28 08:47:54;;;;;;;;;0.00;0.00;;;;;9.85;78.28;99569.31;5074917;28;8966;-58
2023/12/28 08:50:22;;;;;;;;;0.50;0.50;;;;;9.90;77.94;99572.44;5074589;28;8820;-59
2023/12/28 08:52:50;;;;;;;;;1.00;0.00;;;;;9.96;78.09;99566.56;5074191;28;8958;-58
2023/12/28 08:55:18;;;;;;;;;1.00;1.00;;;;;10.01;77.45;99563.56;5074239;28;8882;-60
2023/12/28 08:57:45;;;;;;;;;1.00;0.25;;;;;10.06;78.05;99564.91;5080051;28;8883;-58
2023/12/28 09:00:14;;;;;;;;;1.00;1.00;;;;;10.11;77.52;99567.16;5094141;28;8834;-58
2023/12/28 09:02:42;;;;;;;;;0.00;0.00;;;;;10.16;77.42;99581.78;5094054;28;8822;-58
2023/12/28 09:05:10;;;;;;;;;1.00;1.00;;;;;10.18;77.80;99592.28;5092097;28;8818;-59
2023/12/28 09:07:42;;;;;;;;;0.00;0.00;;;;;10.20;77.57;99580.56;5095087;28;8980;-57
2023/12/28 09:10:11;;;;;;;;;1.00;1.00;;;;;10.23;77.54;99580.28;5101093;28;9523;-59
2023/12/28 09:12:39;;;;;;;;;3.25;3.25;;;;;10.26;77.52;99580.00;5099509;28;9476;-58
2023/12/28 09:15:06;;;;;;;;;0.00;0.00;;;;;10.31;77.24;99582.31;5100669;28;9669;-60
2023/12/28 09:17:34;;;;;;;;;1.00;1.00;;;;;10.35;76.94;99579.25;5108013;28;8892;-59
2023/12/28 09:20:03;;;;;;;;;1.00;1.00;;;;;10.39;76.83;99586.00;5119535;28;8920;-59
2023/12/28 09:22:31;;;;;;;;;2.00;1.00;;;;;10.41;77.06;99584.03;5103840;28;8833;-59
2023/12/28 09:24:58;;;;;;;;;1.00;1.00;;;;;10.47;77.12;99588.03;5099011;28;8931;-58
2023/12/28 09:27:26;;;;;;;;;1.00;1.00;;;;;10.53;77.19;99592.81;5098729;28;8814;-58
2023/12/28 09:29:54;;;;;;;;;2.00;2.00;;;;;10.58;76.53;99591.47;5099504;28;8854;-59
2023/12/28 09:32:22;;;;;;;;;1.00;1.00;;;;;10.60;76.40;99584.19;5080473;28;9557;-60
2023/12/28 09:34:50;;;;;;;;;0.00;0.00;;;;;10.63;76.57;99591.91;5110334;28;8827;-59
2023/12/28 09:37:18;;;;;;;;;0.25;0.25;;;;;10.66;76.53;99599.63;5119187;28;8966;-58
2023/12/28 09:39:46;;;;;;;;;1.00;1.00;;;;;10.65;76.43;99603.28;5119958;28;8827;-59
2023/12/28 09:42:13;;;;;;;;;0.50;0.50;;;;;10.67;76.54;99600.47;5119864;28;9066;-59
2023/12/28 09:44:41;;;;;;;;;1.50;1.50;;;;;10.70;76.11;99606.38;5118760;28;8950;-60
2023/12/28 09:47:11;;;;;;;;;1.00;1.00;;;;;10.72;76.11;99599.13;5117242;28;8820;-58
2023/12/28 09:49:39;;;;;;;;;1.00;1.00;;;;;10.73;75.96;99606.13;5078884;28;9502;-60
2023/12/28 09:52:08;;;;;;;;;1.00;1.00;;;;;10.75;76.12;99598.00;5078221;28;8951;-59
2023/12/28 09:54:36;;;;;;;;;1.00;1.00;;;;;10.75;75.64;99604.16;5078128;28;8828;-59
2023/12/28 09:57:04;;;;;;;;;1.00;1.00;;;;;10.76;75.62;99595.19;5078014;28;8820;-58
2023/12/28 09:59:32;;;;;;;;;2.33;2.33;;;;;10.77;76.01;99596.88;5077155;28;8836;-59
2023/12/28 10:02:00;;;;;;;;;1.00;1.00;;;;;10.79;75.87;99592.28;5077054;28;9586;-58
2023/12/28 10:04:29;;;;;;;;;1.00;1.00;;;;;10.82;75.95;99586.69;5077597;28;8845;-59
2023/12/28 10:06:57;;;;;;;;;1.50;1.00;;;;;10.85;76.06;99602.41;5077257;28;8804;-57
2023/12/28 10:09:27;;;;;;;;;1.00;0.00;;;;;10.89;75.24;99610.97;5076304;28;8844;-59
2023/12/28 10:11:55;;;;;;;;;3.00;3.00;;;;;10.88;75.70;99587.97;5076191;28;8827;-59
2023/12/28 10:14:23;;;;;;;;;3.00;3.00;;;;;10.87;75.53;99581.81;5076755;28;8963;-58
2023/12/28 10:16:51;;;;;;;;;3.00;3.00;;;;;10.88;75.03;99587.97;5092594;28;8929;-59
2023/12/28 10:19:20;;;;;;;;;2.00;2.00;;;;;10.94;75.22;99576.78;5095682;28;8959;-59
2023/12/28 10:21:48;;;;;;;;;1.00;1.00;;;;;11.11;74.73;99574.34;5097464;28;9349;-59
2023/12/28 10:24:16;;;;;;;;;0.75;0.75;;;;;11.21;74.89;99580.56;5097061;28;8822;-59
2023/12/28 10:26:44;;;;;;;;;4.50;4.00;;;;;11.33;74.21;99562.63;5097735;28;8873;-60
2023/12/28 10:29:12;;;;;;;;;4.00;4.00;;;;;11.38;74.11;99561.25;5096934;28;8826;-59
2023/12/28 10:31:40;;;;;;;;;6.50;6.00;;;;;11.42;73.82;99540.47;5097146;28;8842;-59
2023/12/28 10:34:08;;;;;;;;;4.00;4.00;;;;;11.54;73.31;99539.41;5096544;28;8829;-60
2023/12/28 10:36:39;;;;;;;;;3.25;2.50;;;;;11.64;73.14;99551.78;5097897;28;8826;-58
2023/12/28 10:39:07;;;;;;;;;1.50;0.25;;;;;11.83;72.64;99557.13;5096602;28;8926;-57
2023/12/28 10:41:35;;;;;;;;;2.00;1.50;;;;;12.14;71.98;99564.03;5097229;28;8846;-60
2023/12/28 10:44:03;;;;;;;;;0.00;0.00;;;;;12.36;71.42;99553.03;5100094;28;8822;-60
2023/12/28 10:46:36;;;;;;;;;0.00;0.00;;;;;12.53;70.87;99547.81;5118044;28;8902;-57
2023/12/28 10:49:04;;;;;;;;;0.00;0.00;;;;;12.67;70.58;99549.19;5108442;28;8896;-56
2023/12/28 10:51:33;;;;;;;;;1.00;0.75;;;;;13.07;69.84;99534.56;5097241;28;8829;-55
2023/12/28 10:54:02;;;;;;;;;0.00;0.00;;;;;13.62;68.91;99535.41;5097046;28;8830;-57
2023/12/28 10:56:30;;;;;;;;;2.50;2.50;;;;;14.05;67.70;99530.97;5085695;28;8864;-55
2023/12/28 10:58:58;;;;;;;;;4.25;3.25;;;;;14.23;67.26;99523.81;5076772;28;8933;-57
2023/12/28 11:01:26;;;;;;;;;1.00;1.00;;;;;14.21;67.96;99519.59;5096150;28;8854;-57
2023/12/28 11:03:54;;;;;;;;;2.50;2.50;;;;;14.18;67.48;99530.63;5116777;28;8904;-57
2023/12/28 11:06:22;;;;;;;;;1.00;1.00;;;;;14.14;67.28;99524.72;5116576;28;8820;-55
2023/12/28 11:08:51;;;;;;;;;0.00;0.00;;;;;13.83;68.23;99527.94;5116111;28;8847;-57
2023/12/28 11:11:19;;;;;;;;;1.00;1.00;;;;;13.60;69.08;99524.03;5115606;28;8835;-55
2023/12/28 11:13:47;;;;;;;;;0.00;0.00;;;;;13.56;68.81;99536.00;5087946;28;8847;-57
2023/12/28 11:16:15;;;;;;;;;0.00;0.00;;;;;13.68;68.67;99537.47;5075983;28;8836;-57
2023/12/28 11:18:43;;;;;;;;;0.00;0.00;;;;;13.67;68.14;99525.94;5075246;28;8836;-59
2023/12/28 11:21:11;;;;;;;;;1.00;0.00;;;;;13.40;67.97;99523.31;5075707;28;8917;-58
2023/12/28 11:23:38;;;;;;;;;1.00;0.25;;;;;13.13;68.93;99528.66;5074813;28;8855;-59
2023/12/28 11:26:06;;;;;;;;;3.00;2.00;;;;;12.94;68.94;99527.88;5075595;28;8954;-56
2023/12/28 11:28:34;;;;;;;;;1.00;1.00;;;;;12.76;69.19;99535.81;5075144;28;8836;-56
2023/12/28 11:31:02;;;;;;;;;0.00;0.00;;;;;12.61;69.59;99539.09;5075762;28;8836;-56
2023/12/28 11:33:30;;;;;;;;;0.75;0.00;;;;;12.50;70.07;99542.78;5075452;28;8840;-57
2023/12/28 11:35:58;;;;;;;;;0.00;0.00;;;;;12.44;69.41;99543.34;5074534;28;8841;-56
2023/12/28 11:38:26;;;;;;;;;0.00;0.00;;;;;12.42;70.32;99544.47;5088824;28;8836;-58
2023/12/28 11:40:57;;;;;;;;;0.00;0.00;;;;;12.44;69.88;99542.47;5095631;28;9508;-57
2023/12/28 11:43:25;;;;;;;;;1.50;1.50;;;;;12.48;69.64;99554.59;5091667;28;9619;-57
2023/12/28 11:45:53;;;;;;;;;1.00;1.00;;;;;12.51;69.83;99530.25;5075752;28;8824;-56
2023/12/28 11:48:21;;;;;;;;;1.00;1.00;;;;;12.72;69.10;99522.88;5078858;28;8842;-55
2023/12/28 11:50:49;;;;;;;;;3.00;3.00;;;;;12.86;68.30;99527.75;5094452;28;8814;-55
2023/12/28 11:53:16;;;;;;;;;0.75;0.75;;;;;12.81;68.64;99530.00;5094939;28;8824;-56